createdAt,value
2023-03-26T00:02:10.970Z,98241.60
2023-03-26T00:05:09.739Z,98239.60
2023-03-26T00:08:08.873Z,98247.20
2023-03-26T00:11:06.918Z,98250.00
2023-03-26T00:14:05.831Z,98245.20
2023-03-26T00:17:04.784Z,98246.80
2023-03-26T00:20:02.657Z,98246.20
2023-03-26T00:23:01.592Z,98247.80
2023-03-26T00:25:59.617Z,98248.60
2023-03-26T00:28:57.607Z,98253.20
2023-03-26T00:31:56.013Z,98248.80
2023-03-26T00:34:54.397Z,98251.80
2023-03-26T00:37:54.046Z,98249.20
2023-03-26T00:40:51.527Z,98248.40
2023-03-26T00:43:49.547Z,98243.00
2023-03-26T00:46:47.239Z,98248.60
2023-03-26T00:49:47.498Z,98247.60
2023-03-26T00:52:46.144Z,98241.60
2023-03-26T00:55:44.072Z,98249.80
2023-03-26T00:58:41.498Z,98243.40
2023-03-26T01:01:40.260Z,98246.80
2023-03-26T01:04:38.336Z,98247.60
2023-03-26T01:07:37.620Z,98249.80
2023-03-26T01:10:39.137Z,98243.60
2023-03-26T01:13:37.002Z,98244.60
2023-03-26T01:16:34.479Z,98235.20
2023-03-26T01:19:34.331Z,98231.40
2023-03-26T01:22:31.780Z,98231.80
2023-03-26T01:25:29.603Z,98229.20
2023-03-26T01:28:27.475Z,98222.60
2023-03-26T01:31:29.700Z,98218.00
2023-03-26T01:34:31.182Z,98217.60
2023-03-26T01:37:31.046Z,98225.20
2023-03-26T01:40:28.494Z,98223.00
2023-03-26T01:43:26.484Z,98225.60
2023-03-26T01:46:23.949Z,98213.00
2023-03-26T01:49:21.752Z,98220.00
2023-03-26T01:52:19.217Z,98230.40
2023-03-26T01:55:17.415Z,98227.40
2023-03-26T01:58:14.841Z,98229.00
2023-03-26T02:01:13.266Z,98234.80
2023-03-26T02:04:11.250Z,98224.60
2023-03-26T02:07:09.905Z,98217.80
2023-03-26T02:10:07.356Z,98220.80
2023-03-26T02:13:06.918Z,98208.60
2023-03-26T02:16:04.652Z,98202.40
2023-03-26T02:19:02.367Z,98197.00
2023-03-26T02:22:01.147Z,98199.80
2023-03-26T02:24:58.991Z,98201.20
2023-03-26T02:27:56.640Z,98201.20
2023-03-26T02:30:58.089Z,98199.80
2023-03-26T02:33:55.630Z,98195.00
2023-03-26T02:36:53.573Z,98200.80
2023-03-26T02:39:51.208Z,98198.80
2023-03-26T02:42:48.956Z,98189.20
2023-03-26T02:45:47.182Z,98188.80
2023-03-26T02:48:44.687Z,98190.40
2023-03-26T02:51:42.316Z,98187.80
2023-03-26T02:54:39.746Z,98200.00
2023-03-26T02:57:37.376Z,98203.60
2023-03-26T03:00:34.822Z,98198.20
2023-03-26T03:03:32.483Z,98192.20
2023-03-26T03:06:31.052Z,98195.80
2023-03-26T03:09:28.883Z,98197.40
2023-03-26T03:12:26.640Z,98200.40
2023-03-26T03:15:24.136Z,98194.80
2023-03-26T03:18:21.861Z,98189.60
2023-03-26T03:21:19.625Z,98181.40
2023-03-26T03:24:18.386Z,98182.80
2023-03-26T03:27:16.196Z,98185.00
2023-03-26T03:30:13.707Z,98183.00
2023-03-26T03:33:11.401Z,98183.20
2023-03-26T03:36:19.932Z,98184.20
2023-03-26T03:39:19.333Z,98178.80
2023-03-26T03:42:17.116Z,98178.40
2023-03-26T03:45:14.557Z,98169.60
2023-03-26T03:48:12.318Z,98176.20
2023-03-26T03:51:09.773Z,98181.00
2023-03-26T03:54:08.912Z,98183.00
2023-03-26T03:57:06.417Z,98187.40
2023-03-26T04:00:11.092Z,98189.00
2023-03-26T04:03:08.978Z,98181.00
2023-03-26T04:06:07.450Z,98176.40
2023-03-26T04:09:05.152Z,98184.00
2023-03-26T04:12:02.669Z,98183.00
2023-03-26T04:15:00.390Z,98179.20
2023-03-26T04:17:57.908Z,98182.60
2023-03-26T04:20:55.929Z,98181.00
2023-03-26T04:23:54.541Z,98177.80
2023-03-26T04:26:51.983Z,98181.80
2023-03-26T04:29:49.999Z,98175.40
2023-03-26T04:32:47.492Z,98185.20
2023-03-26T04:35:48.542Z,98181.40
2023-03-26T04:38:46.118Z,98177.60
2023-03-26T04:41:43.810Z,98179.80
2023-03-26T04:44:42.438Z,98180.00
2023-03-26T04:47:40.104Z,98177.60
2023-03-26T04:50:37.828Z,98179.20
2023-03-26T04:53:35.325Z,98190.60
2023-03-26T04:56:32.994Z,98179.40
2023-03-26T04:59:35.051Z,98181.60
2023-03-26T05:02:34.037Z,98180.20
2023-03-26T05:05:31.495Z,98178.20
2023-03-26T05:08:29.876Z,98186.20
2023-03-26T05:11:27.308Z,98194.00
2023-03-26T05:14:24.955Z,98190.20
2023-03-26T05:17:22.652Z,98191.60
2023-03-26T05:20:21.054Z,98197.40
2023-03-26T05:23:18.770Z,98189.60
2023-03-26T05:26:16.254Z,98192.40
2023-03-26T05:29:14.032Z,98193.40
2023-03-26T05:32:11.517Z,98194.00
2023-03-26T05:35:09.586Z,98187.20
2023-03-26T05:38:07.104Z,98187.20
2023-03-26T05:41:05.442Z,98193.20
2023-03-26T05:44:03.286Z,98189.80
2023-03-26T05:47:00.756Z,98196.40
2023-03-26T05:49:58.451Z,98201.60
2023-03-26T05:52:56.037Z,98195.20
2023-03-26T05:55:56.748Z,98201.80
2023-03-26T05:58:54.217Z,98211.00
2023-03-26T06:01:54.944Z,98214.80
2023-03-26T06:04:52.833Z,98223.20
2023-03-26T06:07:50.296Z,98229.80
2023-03-26T06:10:47.936Z,98237.00
2023-03-26T06:13:45.387Z,98238.40
2023-03-26T06:16:43.136Z,98242.20
2023-03-26T06:19:40.577Z,98246.80
2023-03-26T06:22:38.522Z,98251.20
2023-03-26T06:25:35.946Z,98255.80
2023-03-26T06:28:33.761Z,98257.20
2023-03-26T06:31:31.429Z,98260.60
2023-03-26T06:34:28.874Z,98265.40
2023-03-26T06:37:26.465Z,98257.60
2023-03-26T06:40:23.953Z,98267.60
2023-03-26T06:43:21.587Z,98271.60
2023-03-26T06:46:21.286Z,98274.20
2023-03-26T06:49:19.099Z,98279.80
2023-03-26T06:52:16.536Z,98286.20
2023-03-26T06:55:14.309Z,98281.20
2023-03-26T06:58:12.112Z,98273.20
2023-03-26T07:01:09.799Z,98281.80
2023-03-26T07:04:07.640Z,98279.00
2023-03-26T07:07:05.071Z,98276.80
2023-03-26T07:10:02.953Z,98265.20
2023-03-26T07:13:00.395Z,98276.40
2023-03-26T07:15:58.015Z,98271.60
2023-03-26T07:18:55.744Z,98265.80
2023-03-26T07:21:53.181Z,98260.00
2023-03-26T07:24:50.951Z,98261.20
2023-03-26T07:27:48.408Z,98252.00
2023-03-26T07:30:46.013Z,98250.00
2023-03-26T07:33:43.548Z,98250.80
2023-03-26T07:36:41.314Z,98249.40
2023-03-26T07:39:38.748Z,98242.80
2023-03-26T07:42:36.532Z,98244.60
2023-03-26T07:45:34.036Z,98239.40
2023-03-26T07:48:31.732Z,98238.80
2023-03-26T07:51:29.376Z,98230.80
2023-03-26T07:54:26.856Z,98234.00
2023-03-26T07:57:24.555Z,98236.20
2023-03-26T08:00:22.238Z,98228.60
2023-03-26T08:03:20.118Z,98230.40
2023-03-26T08:06:17.798Z,98224.20
2023-03-26T08:09:15.714Z,98233.20
2023-03-26T08:12:13.433Z,98219.60
2023-03-26T08:15:11.199Z,98225.00
2023-03-26T08:18:10.081Z,98230.40
2023-03-26T08:21:08.150Z,98206.60
2023-03-26T08:24:06.029Z,98221.60
2023-03-26T08:27:03.478Z,98220.00
2023-03-26T08:30:02.957Z,98220.40
2023-03-26T08:33:00.435Z,98223.60
2023-03-26T08:35:58.225Z,98217.80
2023-03-26T08:38:58.390Z,98215.00
2023-03-26T08:41:55.814Z,98219.40
2023-03-26T08:44:53.641Z,98213.60
2023-03-26T08:47:51.097Z,98199.00
2023-03-26T08:50:48.731Z,98186.40
2023-03-26T08:53:46.209Z,98187.60
2023-03-26T08:56:44.305Z,98185.80
2023-03-26T08:59:41.819Z,98179.00
2023-03-26T09:02:39.467Z,98177.00
2023-03-26T09:05:36.943Z,98177.40
2023-03-26T09:11:48.400Z,98156.00
2023-03-26T09:14:45.844Z,98151.60
2023-03-26T09:17:43.477Z,98148.20
2023-03-26T09:20:41.643Z,98139.80
2023-03-26T09:23:39.692Z,98132.60
2023-03-26T09:26:37.143Z,98131.60
2023-03-26T09:29:34.797Z,98136.60
2023-03-26T09:32:32.562Z,98137.00
2023-03-26T09:35:30.052Z,98123.40
2023-03-26T09:38:27.681Z,98127.40
2023-03-26T09:41:25.117Z,98124.80
2023-03-26T09:44:23.022Z,98118.60
2023-03-26T09:47:22.310Z,98108.40
2023-03-26T09:50:20.285Z,98104.20
2023-03-26T09:53:17.723Z,98096.80
2023-03-26T09:56:15.914Z,98094.80
2023-03-26T09:59:13.664Z,98088.20
2023-03-26T10:02:11.690Z,98082.20
2023-03-26T10:05:10.482Z,98077.20
2023-03-26T10:08:07.952Z,98070.20
2023-03-26T10:11:05.896Z,98064.80
2023-03-26T10:14:04.164Z,98055.60
2023-03-26T10:17:03.365Z,98054.60
2023-03-26T10:20:01.323Z,98045.60
2023-03-26T10:22:58.731Z,98036.80
2023-03-26T10:25:56.674Z,98026.60
2023-03-26T10:28:54.150Z,98020.40
2023-03-26T10:31:51.825Z,98015.00
2023-03-26T10:34:49.562Z,98008.80
2023-03-26T10:37:47.017Z,98001.20
2023-03-26T10:40:44.870Z,97998.20
2023-03-26T10:43:42.310Z,97981.00
2023-03-26T10:46:39.960Z,97986.00
2023-03-26T10:49:37.688Z,97984.60
2023-03-26T10:52:35.279Z,97976.80
2023-03-26T10:55:32.782Z,97972.00
2023-03-26T10:58:48.330Z,97964.00
2023-03-26T11:01:47.620Z,97952.40
2023-03-26T11:04:45.055Z,97948.20
2023-03-26T11:07:42.674Z,97941.40
2023-03-26T11:10:40.141Z,97932.00
2023-03-26T11:13:38.245Z,97921.00
2023-03-26T11:16:35.779Z,97910.40
2023-03-26T11:19:33.480Z,97910.60
2023-03-26T11:22:31.570Z,97905.20
2023-03-26T11:25:29.060Z,97896.20
2023-03-26T11:28:26.896Z,97885.80
2023-03-26T11:31:24.671Z,97883.00
2023-03-26T11:34:22.676Z,97876.60
2023-03-26T11:37:20.192Z,97879.00
2023-03-26T11:40:20.955Z,97876.40
2023-03-26T11:43:18.616Z,97875.80
2023-03-26T11:46:16.918Z,97873.00
2023-03-26T11:49:15.023Z,97863.00
2023-03-26T11:52:12.534Z,97857.80
2023-03-26T11:55:10.365Z,97852.20
2023-03-26T11:58:07.779Z,97854.40
2023-03-26T12:01:05.711Z,97848.00
2023-03-26T12:04:03.831Z,97843.80
2023-03-26T12:07:01.711Z,97838.40
2023-03-26T12:10:17.967Z,97830.20
2023-03-26T12:13:16.645Z,97827.20
2023-03-26T12:16:14.543Z,97814.80
2023-03-26T12:19:12.253Z,97814.00
2023-03-26T12:22:09.700Z,97819.00
2023-03-26T12:25:07.987Z,97812.60
2023-03-26T12:28:05.489Z,97809.00
2023-03-26T12:31:04.371Z,97808.60
2023-03-26T12:34:02.138Z,97803.80
2023-03-26T12:37:01.542Z,97794.60
2023-03-26T12:40:11.781Z,97795.00
2023-03-26T12:44:46.780Z,97787.60
2023-03-26T12:47:55.464Z,97782.00
2023-03-26T12:49:49.093Z,97780.60
2023-03-26T12:52:47.357Z,97763.00
2023-03-26T12:55:45.671Z,97755.60
2023-03-26T12:58:50.924Z,97744.60
2023-03-26T13:01:50.688Z,97736.00
2023-03-26T13:05:02.279Z,97733.20
2023-03-26T13:08:02.763Z,97739.20
2023-03-26T13:11:00.215Z,97733.00
2023-03-26T13:13:58.191Z,97736.00
2023-03-26T13:16:55.708Z,97729.40
2023-03-26T13:19:53.532Z,97727.00
2023-03-26T13:22:51.830Z,97721.80
2023-03-26T13:25:49.300Z,97710.20
2023-03-26T13:28:47.148Z,97699.00
2023-03-26T13:31:44.595Z,97701.60
2023-03-26T13:34:42.240Z,97702.80
2023-03-26T13:37:40.298Z,97710.20
2023-03-26T13:40:38.894Z,97698.00
2023-03-26T13:43:36.851Z,97690.40
2023-03-26T13:46:34.339Z,97694.60
2023-03-26T13:49:37.490Z,97688.20
2023-03-26T13:52:34.980Z,97684.20
2023-03-26T13:55:33.090Z,97683.40
2023-03-26T13:58:34.328Z,97676.80
2023-03-26T14:01:35.272Z,97671.00
2023-03-26T14:04:32.805Z,97662.40
2023-03-26T14:07:32.008Z,97643.40
2023-03-26T14:10:33.621Z,97623.60
2023-03-26T14:13:31.860Z,97614.60
2023-03-26T14:16:30.107Z,97597.60
2023-03-26T14:19:28.131Z,97599.00
2023-03-26T14:22:26.239Z,97609.00
2023-03-26T14:25:24.886Z,97606.40
2023-03-26T14:28:22.731Z,97598.20
2023-03-26T14:31:20.738Z,97597.60
2023-03-26T14:34:18.802Z,97594.20
2023-03-26T14:37:27.111Z,97581.80
2023-03-26T14:40:26.019Z,97577.00
2023-03-26T14:43:24.464Z,97569.40
2023-03-26T14:46:22.082Z,97560.00
2023-03-26T14:49:21.154Z,97557.20
2023-03-26T14:52:21.214Z,97562.20
2023-03-26T14:55:21.476Z,97566.80
2023-03-26T14:58:22.291Z,97571.80
2023-03-26T15:01:19.961Z,97563.60
2023-03-26T15:04:18.061Z,97557.80
2023-03-26T15:07:16.162Z,97557.40
2023-03-26T15:10:13.806Z,97562.00
2023-03-26T15:13:11.306Z,97558.80
2023-03-26T15:16:09.942Z,97560.40
2023-03-26T15:19:07.994Z,97559.40
2023-03-26T15:22:05.777Z,97556.40
2023-03-26T15:25:04.730Z,97546.20
2023-03-26T15:28:02.208Z,97553.00
2023-03-26T15:30:59.893Z,97556.20
2023-03-26T15:33:58.488Z,97567.80
2023-03-26T15:36:56.825Z,97575.00
2023-03-26T15:40:08.474Z,97578.00
2023-03-26T15:43:06.156Z,97581.60
2023-03-26T15:46:04.611Z,97574.60
2023-03-26T15:49:02.233Z,97578.60
2023-03-26T15:52:01.093Z,97578.80
2023-03-26T15:55:00.557Z,97580.80
2023-03-26T15:57:58.395Z,97586.40
2023-03-26T16:00:57.787Z,97581.80
2023-03-26T16:03:56.696Z,97581.40
2023-03-26T16:06:55.756Z,97585.40
2023-03-26T16:09:54.612Z,97591.60
2023-03-26T16:12:52.535Z,97596.80
2023-03-26T16:15:51.943Z,97606.20
2023-03-26T16:18:49.941Z,97595.80
2023-03-26T16:21:49.409Z,97601.60
2023-03-26T16:24:47.957Z,97601.80
2023-03-26T16:27:48.277Z,97606.80
2023-03-26T16:30:48.683Z,97602.00
2023-03-26T16:33:46.835Z,97606.80
2023-03-26T16:36:45.214Z,97590.60
2023-03-26T16:39:44.276Z,97600.20
2023-03-26T16:42:42.747Z,97592.20
2023-03-26T16:45:42.329Z,97589.40
2023-03-26T16:48:40.709Z,97581.20
2023-03-26T16:51:40.021Z,97589.40
2023-03-26T16:54:39.712Z,97590.20
2023-03-26T16:57:41.500Z,97593.40
2023-03-26T17:00:39.790Z,97593.80
2023-03-26T17:03:39.434Z,97597.80
2023-03-26T17:06:37.749Z,97603.40
2023-03-26T17:09:37.349Z,97608.20
2023-03-26T17:12:36.036Z,97604.00
2023-03-26T17:15:34.219Z,97613.00
2023-03-26T17:18:33.186Z,97617.80
2023-03-26T17:21:45.881Z,97619.80
2023-03-26T17:24:45.603Z,97624.40
2023-03-26T17:27:43.118Z,97617.80
2023-03-26T17:30:42.900Z,97614.20
2023-03-26T17:33:42.751Z,97613.80
2023-03-26T17:36:44.888Z,97612.40
2023-03-26T17:39:47.734Z,97608.80
2023-03-26T17:42:46.569Z,97606.60
2023-03-26T17:45:46.620Z,97607.60
2023-03-26T17:49:06.693Z,97615.60
2023-03-26T17:52:05.051Z,97621.60
2023-03-26T17:55:03.749Z,97614.60
2023-03-26T17:58:01.305Z,97612.00
2023-03-26T18:01:02.761Z,97614.60
2023-03-26T18:04:01.662Z,97616.40
2023-03-26T18:07:01.186Z,97618.80
2023-03-26T18:10:01.361Z,97621.40
2023-03-26T18:12:59.677Z,97618.20
2023-03-26T18:16:01.034Z,97622.20
2023-03-26T18:18:59.815Z,97624.20
2023-03-26T18:21:59.327Z,97622.40
2023-03-26T18:24:59.679Z,97623.80
2023-03-26T18:27:59.258Z,97615.20
2023-03-26T18:30:58.142Z,97616.00
2023-03-26T18:33:57.972Z,97607.80
2023-03-26T18:36:56.372Z,97610.20
2023-03-26T18:39:54.632Z,97602.20
2023-03-26T18:42:54.107Z,97604.80
2023-03-26T18:45:52.493Z,97594.80
2023-03-26T18:48:53.087Z,97588.60
2023-03-26T18:51:57.242Z,97582.20
2023-03-26T18:54:56.476Z,97581.40
2023-03-26T18:57:56.441Z,97567.60
2023-03-26T19:00:55.870Z,97563.40
2023-03-26T19:03:56.017Z,97562.60
2023-03-26T19:06:56.476Z,97555.60
2023-03-26T19:09:58.874Z,97548.00
2023-03-26T19:13:02.493Z,97547.80
2023-03-26T19:16:02.526Z,97541.60
2023-03-26T19:19:01.342Z,97531.40
2023-03-26T19:22:00.748Z,97530.20
2023-03-26T19:24:59.585Z,97523.40
2023-03-26T19:27:58.471Z,97518.80
2023-03-26T19:31:00.047Z,97516.60
2023-03-26T19:34:00.323Z,97508.20
2023-03-26T19:37:02.179Z,97517.00
2023-03-26T19:40:02.307Z,97524.40
2023-03-26T19:43:02.322Z,97523.40
2023-03-26T19:46:03.998Z,97529.00
2023-03-26T19:49:03.204Z,97523.40
2023-03-26T19:52:03.218Z,97511.60
2023-03-26T19:55:07.852Z,97508.20
2023-03-26T19:58:06.829Z,97500.00
2023-03-26T20:01:07.450Z,97492.60
2023-03-26T20:04:07.079Z,97488.80
2023-03-26T20:07:07.453Z,97494.40
2023-03-26T20:10:06.196Z,97482.60
2023-03-26T20:13:06.048Z,97473.20
2023-03-26T20:16:06.415Z,97476.80
2023-03-26T20:19:05.259Z,97484.40
2023-03-26T20:22:05.941Z,97474.60
2023-03-26T20:25:06.105Z,97476.80
2023-03-26T20:28:04.613Z,97465.60
2023-03-26T20:31:03.014Z,97462.00
2023-03-26T20:34:03.247Z,97464.20
2023-03-26T20:37:01.695Z,97466.80
2023-03-26T20:39:59.274Z,97462.60
2023-03-26T20:42:57.033Z,97461.60
2023-03-26T20:45:55.972Z,97467.80
2023-03-26T20:48:55.467Z,97458.00
2023-03-26T20:51:54.884Z,97454.20
2023-03-26T20:54:53.694Z,97445.80
2023-03-26T20:57:53.684Z,97441.80
2023-03-26T21:00:51.734Z,97436.20
2023-03-26T21:03:51.213Z,97434.80
2023-03-26T21:06:48.884Z,97434.00
2023-03-26T21:09:46.735Z,97431.40
2023-03-26T21:12:44.493Z,97426.80
2023-03-26T21:15:42.042Z,97424.20
2023-03-26T21:18:40.027Z,97418.00
2023-03-26T21:21:37.510Z,97416.60
2023-03-26T21:24:35.275Z,97409.80
2023-03-26T21:27:34.259Z,97413.80
2023-03-26T21:30:32.549Z,97409.20
2023-03-26T21:33:30.233Z,97406.80
2023-03-26T21:36:28.248Z,97405.40
2023-03-26T21:39:25.970Z,97402.00
2023-03-26T21:42:26.945Z,97393.60
2023-03-26T21:45:25.100Z,97393.20
2023-03-26T21:48:22.823Z,97397.00
2023-03-26T21:51:20.301Z,97392.40
2023-03-26T21:54:17.952Z,97389.00
2023-03-26T21:57:15.558Z,97379.40
2023-03-26T22:00:19.952Z,97378.00
2023-03-26T22:03:18.282Z,97372.00
2023-03-26T22:06:16.666Z,97363.40
2023-03-26T22:09:16.661Z,97365.00
2023-03-26T22:12:17.242Z,97372.60
2023-03-26T22:15:15.213Z,97373.60
2023-03-26T22:18:14.314Z,97375.60
2023-03-26T22:21:13.008Z,97370.80
2023-03-26T22:24:10.462Z,97370.60
2023-03-26T22:27:08.677Z,97361.60
2023-03-26T22:30:06.515Z,97358.60
2023-03-26T22:33:04.626Z,97361.80
2023-03-26T22:36:02.631Z,97354.20
2023-03-26T22:39:00.214Z,97352.80
2023-03-26T22:41:57.963Z,97346.40
2023-03-26T22:44:55.426Z,97347.00
2023-03-26T22:47:53.206Z,97348.00
2023-03-26T22:51:01.902Z,97348.40
2023-03-26T22:53:59.358Z,97344.60
2023-03-26T22:56:57.075Z,97344.80
2023-03-26T22:59:54.561Z,97339.80
2023-03-26T23:02:52.313Z,97332.60
2023-03-26T23:05:49.780Z,97324.00
2023-03-26T23:08:47.609Z,97325.40
2023-03-26T23:11:45.375Z,97320.80
2023-03-26T23:14:43.698Z,97318.20
2023-03-26T23:17:41.513Z,97323.60
2023-03-26T23:20:40.131Z,97320.00
2023-03-26T23:23:39.068Z,97319.20
2023-03-26T23:26:49.607Z,97324.40
2023-03-26T23:29:48.400Z,97324.60
2023-03-26T23:32:46.024Z,97319.60
2023-03-26T23:35:44.869Z,97324.80
2023-03-26T23:38:44.145Z,97326.40
2023-03-26T23:41:42.302Z,97319.20
2023-03-26T23:44:40.113Z,97313.40
2023-03-26T23:47:42.662Z,97308.00
2023-03-26T23:50:40.334Z,97303.60
2023-03-26T23:53:37.954Z,97301.00
2023-03-26T23:56:35.459Z,97302.60
2023-03-26T23:59:35.894Z,97296.40
